sensor_id;sensor_type;location;lat;lon;timestamp;pressure;altitude;pressure_sealevel;temperature;humidity
49779;BME280;36217;60.232;24.776;2022-12-04T00:00:15;103017.56;;;-0.84;95.21
49779;BME280;36217;60.232;24.776;2022-12-04T00:02:41;103013.38;;;-0.92;95.97
49779;BME280;36217;60.232;24.776;2022-12-04T00:05:09;103013.96;;;-0.95;96.09
49779;BME280;36217;60.232;24.776;2022-12-04T00:07:35;103021.27;;;-0.89;95.93
49779;BME280;36217;60.232;24.776;2022-12-04T00:10:03;103023.88;;;-0.85;95.76
49779;BME280;36217;60.232;24.776;2022-12-04T00:12:30;103022.14;;;-0.84;95.14
49779;BME280;36217;60.232;24.776;2022-12-04T00:14:57;103022.27;;;-0.84;95.52
49779;BME280;36217;60.232;24.776;2022-12-04T00:17:24;103021.65;;;-0.56;95.89
49779;BME280;36217;60.232;24.776;2022-12-04T00:19:51;103020.71;;;-0.81;95.84
49779;BME280;36217;60.232;24.776;2022-12-04T00:22:18;103023.68;;;-0.77;95.27
49779;BME280;36217;60.232;24.776;2022-12-04T00:24:45;103023.34;;;-0.82;95.51
49779;BME280;36217;60.232;24.776;2022-12-04T00:27:12;103022.78;;;-0.79;95.28
49779;BME280;36217;60.232;24.776;2022-12-04T00:29:39;103022.39;;;-0.79;95.36
49779;BME280;36217;60.232;24.776;2022-12-04T00:32:06;103022.41;;;-0.72;95.81
49779;BME280;36217;60.232;24.776;2022-12-04T00:34:33;103020.34;;;-0.70;95.90
49779;BME280;36217;60.232;24.776;2022-12-04T00:37:00;103019.07;;;-0.72;96.26
49779;BME280;36217;60.232;24.776;2022-12-04T00:39:28;103018.82;;;-0.91;96.34
49779;BME280;36217;60.232;24.776;2022-12-04T00:41:54;103017.40;;;-0.64;95.96
49779;BME280;36217;60.232;24.776;2022-12-04T00:44:22;103020.66;;;-0.83;95.61
49779;BME280;36217;60.232;24.776;2022-12-04T00:46:49;103018.34;;;-0.55;95.46
49779;BME280;36217;60.232;24.776;2022-12-04T00:49:16;103019.46;;;-0.80;95.14
49779;BME280;36217;60.232;24.776;2022-12-04T00:51:43;103025.72;;;-0.58;95.56
49779;BME280;36217;60.232;24.776;2022-12-04T00:54:10;103028.59;;;-0.57;96.08
49779;BME280;36217;60.232;24.776;2022-12-04T00:56:38;103029.83;;;-0.59;96.02
49779;BME280;36217;60.232;24.776;2022-12-04T00:59:05;103030.40;;;-0.60;96.36
49779;BME280;36217;60.232;24.776;2022-12-04T01:01:32;103028.44;;;-0.59;96.18
49779;BME280;36217;60.232;24.776;2022-12-04T01:03:59;103028.75;;;-0.55;95.74
49779;BME280;36217;60.232;24.776;2022-12-04T01:06:27;103032.84;;;-0.55;95.72
49779;BME280;36217;60.232;24.776;2022-12-04T01:08:56;103038.03;;;-0.55;95.62
49779;BME280;36217;60.232;24.776;2022-12-04T01:11:24;103038.11;;;-0.78;95.57
49779;BME280;36217;60.232;24.776;2022-12-04T01:13:51;103038.77;;;-0.54;95.83
49779;BME280;36217;60.232;24.776;2022-12-04T01:16:20;103033.07;;;-0.54;95.79
49779;BME280;36217;60.232;24.776;2022-12-04T01:18:48;103029.61;;;-0.59;96.21
49779;BME280;36217;60.232;24.776;2022-12-04T01:21:15;103027.90;;;-0.57;96.48
49779;BME280;36217;60.232;24.776;2022-12-04T01:23:43;103026.21;;;-0.58;96.50
49779;BME280;36217;60.232;24.776;2022-12-04T01:26:10;103023.68;;;-0.86;96.61
49779;BME280;36217;60.232;24.776;2022-12-04T01:28:37;103020.54;;;-0.61;96.32
49779;BME280;36217;60.232;24.776;2022-12-04T01:31:07;103019.22;;;-0.56;96.23
49779;BME280;36217;60.232;24.776;2022-12-04T01:33:36;103021.33;;;-0.75;96.21
49779;BME280;36217;60.232;24.776;2022-12-04T01:36:05;103023.11;;;-0.78;96.17
49779;BME280;36217;60.232;24.776;2022-12-04T01:38:34;103025.33;;;-0.80;96.25
49779;BME280;36217;60.232;24.776;2022-12-04T01:41:02;103026.41;;;-0.54;96.61
49779;BME280;36217;60.232;24.776;2022-12-04T01:43:30;103022.12;;;-0.49;96.18
49779;BME280;36217;60.232;24.776;2022-12-04T01:45:58;103018.81;;;-0.72;95.93
49779;BME280;36217;60.232;24.776;2022-12-04T01:48:27;103019.72;;;-0.53;95.90
49779;BME280;36217;60.232;24.776;2022-12-04T01:51:01;103015.84;;;-0.55;96.03
49779;BME280;36217;60.232;24.776;2022-12-04T01:53:30;103018.47;;;-0.53;95.74
49779;BME280;36217;60.232;24.776;2022-12-04T01:55:57;103020.14;;;-0.52;95.93
49779;BME280;36217;60.232;24.776;2022-12-04T01:58:28;103016.84;;;-0.60;96.41
49779;BME280;36217;60.232;24.776;2022-12-04T02:01:00;103016.41;;;-0.55;96.42
49779;BME280;36217;60.232;24.776;2022-12-04T02:03:28;103016.39;;;-0.77;96.20
49779;BME280;36217;60.232;24.776;2022-12-04T02:05:55;103017.79;;;-0.59;96.79
49779;BME280;36217;60.232;24.776;2022-12-04T02:08:23;103019.15;;;-0.57;97.00
49779;BME280;36217;60.232;24.776;2022-12-04T02:10:56;103019.79;;;-0.83;96.56
49779;BME280;36217;60.232;24.776;2022-12-04T02:13:31;103017.66;;;-0.79;96.50
49779;BME280;36217;60.232;24.776;2022-12-04T02:16:10;103017.03;;;-0.59;96.47
49779;BME280;36217;60.232;24.776;2022-12-04T02:18:48;103019.96;;;-0.75;96.41
49779;BME280;36217;60.232;24.776;2022-12-04T02:21:23;103020.49;;;-0.74;96.42
49779;BME280;36217;60.232;24.776;2022-12-04T02:24:05;103016.82;;;-0.75;96.42
49779;BME280;36217;60.232;24.776;2022-12-04T02:26:40;103018.10;;;-0.53;96.40
49779;BME280;36217;60.232;24.776;2022-12-04T02:29:13;103016.69;;;-0.75;96.61
49779;BME280;36217;60.232;24.776;2022-12-04T02:31:48;103012.83;;;-0.72;96.40
49779;BME280;36217;60.232;24.776;2022-12-04T02:34:22;103016.65;;;-0.74;96.52
49779;BME280;36217;60.232;24.776;2022-12-04T02:36:53;103013.55;;;-0.75;96.43
49779;BME280;36217;60.232;24.776;2022-12-04T02:39:25;103011.80;;;-0.53;96.60
49779;BME280;36217;60.232;24.776;2022-12-04T02:41:58;103013.37;;;-0.51;96.81
49779;BME280;36217;60.232;24.776;2022-12-04T02:44:29;103011.86;;;-0.77;97.28
49779;BME280;36217;60.232;24.776;2022-12-04T02:47:01;103012.64;;;-0.58;97.75
49779;BME280;36217;60.232;24.776;2022-12-04T02:49:32;103009.96;;;-0.58;97.65
49779;BME280;36217;60.232;24.776;2022-12-04T02:52:02;103005.17;;;-0.54;97.50
49779;BME280;36217;60.232;24.776;2022-12-04T02:54:33;103007.27;;;-0.54;97.70
49779;BME280;36217;60.232;24.776;2022-12-04T02:57:03;103011.14;;;-0.53;97.79
49779;BME280;36217;60.232;24.776;2022-12-04T02:59:35;103010.66;;;-0.58;97.74
49779;BME280;36217;60.232;24.776;2022-12-04T03:02:08;103010.51;;;-0.57;97.61
49779;BME280;36217;60.232;24.776;2022-12-04T03:04:38;103011.98;;;-0.57;97.69
49779;BME280;36217;60.232;24.776;2022-12-04T03:07:12;103014.11;;;-0.55;98.00
49779;BME280;36217;60.232;24.776;2022-12-04T03:09:43;103015.08;;;-0.53;97.96
49779;BME280;36217;60.232;24.776;2022-12-04T03:12:14;103015.23;;;-0.56;97.99
49779;BME280;36217;60.232;24.776;2022-12-04T03:14:46;103016.99;;;-0.56;98.15
49779;BME280;36217;60.232;24.776;2022-12-04T03:17:16;103019.48;;;-0.55;98.16
49779;BME280;36217;60.232;24.776;2022-12-04T03:19:50;103019.29;;;-0.78;98.13
49779;BME280;36217;60.232;24.776;2022-12-04T03:22:20;103019.66;;;-0.79;98.34
49779;BME280;36217;60.232;24.776;2022-12-04T03:24:51;103020.17;;;-0.81;98.25
49779;BME280;36217;60.232;24.776;2022-12-04T03:27:24;103021.62;;;-0.54;98.11
49779;BME280;36217;60.232;24.776;2022-12-04T03:29:58;103024.18;;;-0.77;98.24
49779;BME280;36217;60.232;24.776;2022-12-04T03:32:32;103021.21;;;-0.51;98.20
49779;BME280;36217;60.232;24.776;2022-12-04T03:35:03;103022.47;;;-0.75;98.06
49779;BME280;36217;60.232;24.776;2022-12-04T03:37:36;103022.77;;;-0.55;98.08
49779;BME280;36217;60.232;24.776;2022-12-04T03:40:12;103019.80;;;-0.53;98.01
49779;BME280;36217;60.232;24.776;2022-12-04T03:42:44;103019.34;;;-0.57;98.35
49779;BME280;36217;60.232;24.776;2022-12-04T03:45:18;103022.73;;;-0.56;98.48
49779;BME280;36217;60.232;24.776;2022-12-04T03:47:51;103023.40;;;-0.79;98.70
49779;BME280;36217;60.232;24.776;2022-12-04T03:50:30;103018.53;;;-0.80;98.71
49779;BME280;36217;60.232;24.776;2022-12-04T03:53:06;103022.03;;;-0.90;98.79
49779;BME280;36217;60.232;24.776;2022-12-04T03:55:39;103021.24;;;-0.63;98.39
49779;BME280;36217;60.232;24.776;2022-12-04T03:58:11;103022.47;;;-0.88;98.46
49779;BME280;36217;60.232;24.776;2022-12-04T04:00:42;103023.31;;;-0.65;98.64
49779;BME280;36217;60.232;24.776;2022-12-04T04:03:13;103022.54;;;-0.66;98.58
49779;BME280;36217;60.232;24.776;2022-12-04T04:05:45;103026.47;;;-0.62;98.34
49779;BME280;36217;60.232;24.776;2022-12-04T04:08:16;103026.47;;;-0.68;98.65
49779;BME280;36217;60.232;24.776;2022-12-04T04:10:45;103026.07;;;-1.17;98.21
49779;BME280;36217;60.232;24.776;2022-12-04T04:13:16;103029.80;;;-0.61;98.44
49779;BME280;36217;60.232;24.776;2022-12-04T04:15:48;103031.69;;;-0.64;98.34
49779;BME280;36217;60.232;24.776;2022-12-04T04:18:17;103031.67;;;-0.92;98.46
49779;BME280;36217;60.232;24.776;2022-12-04T04:20:48;103032.45;;;-0.74;98.65
49779;BME280;36217;60.232;24.776;2022-12-04T04:23:17;103031.92;;;-0.26;98.15
49779;BME280;36217;60.232;24.776;2022-12-04T04:25:46;103034.13;;;-0.72;97.95
49779;BME280;36217;60.232;24.776;2022-12-04T04:28:35;103032.42;;;-0.75;98.12
49779;BME280;36217;60.232;24.776;2022-12-04T04:31:10;103028.27;;;-0.70;97.70
49779;BME280;36217;60.232;24.776;2022-12-04T04:33:47;103028.71;;;-0.72;97.71
49779;BME280;36217;60.232;24.776;2022-12-04T04:36:22;103025.02;;;-0.45;97.78
49779;BME280;36217;60.232;24.776;2022-12-04T04:38:57;103023.12;;;-0.72;97.26
49779;BME280;36217;60.232;24.776;2022-12-04T04:41:31;103022.81;;;-0.94;98.44
49779;BME280;36217;60.232;24.776;2022-12-04T04:44:03;103020.96;;;-0.88;97.11
49779;BME280;36217;60.232;24.776;2022-12-04T04:46:38;103020.38;;;-0.72;97.53
49779;BME280;36217;60.232;24.776;2022-12-04T04:49:09;103022.10;;;-0.70;97.09
49779;BME280;36217;60.232;24.776;2022-12-04T04:51:38;103021.44;;;-0.73;96.59
49779;BME280;36217;60.232;24.776;2022-12-04T04:54:08;103022.58;;;-0.76;96.54
49779;BME280;36217;60.232;24.776;2022-12-04T04:56:40;103022.18;;;-0.96;96.85
49779;BME280;36217;60.232;24.776;2022-12-04T04:59:08;103023.07;;;-0.51;96.62
49779;BME280;36217;60.232;24.776;2022-12-04T05:01:35;103022.31;;;-0.74;96.88
49779;BME280;36217;60.232;24.776;2022-12-04T05:04:04;103019.83;;;-0.79;97.12
49779;BME280;36217;60.232;24.776;2022-12-04T05:06:32;103018.62;;;-0.97;96.79
49779;BME280;36217;60.232;24.776;2022-12-04T05:08:59;103016.55;;;-0.71;96.52
49779;BME280;36217;60.232;24.776;2022-12-04T05:11:27;103018.20;;;-0.96;96.67
49779;BME280;36217;60.232;24.776;2022-12-04T05:13:54;103022.23;;;-0.65;96.14
49779;BME280;36217;60.232;24.776;2022-12-04T05:16:21;103021.51;;;-0.67;95.89
49779;BME280;36217;60.232;24.776;2022-12-04T05:18:48;103023.20;;;-0.71;96.40
49779;BME280;36217;60.232;24.776;2022-12-04T05:21:15;103027.81;;;-0.72;96.72
49779;BME280;36217;60.232;24.776;2022-12-04T05:23:43;103029.44;;;-0.75;96.48
49779;BME280;36217;60.232;24.776;2022-12-04T05:26:10;103024.35;;;-0.78;96.23
49779;BME280;36217;60.232;24.776;2022-12-04T05:28:38;103023.38;;;-0.76;96.41
49779;BME280;36217;60.232;24.776;2022-12-04T05:31:04;103020.97;;;-0.80;96.81
49779;BME280;36217;60.232;24.776;2022-12-04T05:33:32;103022.55;;;-0.77;96.63
49779;BME280;36217;60.232;24.776;2022-12-04T05:36:01;103021.32;;;-0.79;96.65
49779;BME280;36217;60.232;24.776;2022-12-04T05:38:28;103023.58;;;-0.78;96.36
49779;BME280;36217;60.232;24.776;2022-12-04T05:40:56;103024.15;;;-1.04;96.73
49779;BME280;36217;60.232;24.776;2022-12-04T05:43:24;103026.09;;;-0.98;96.18
49779;BME280;36217;60.232;24.776;2022-12-04T05:45:51;103027.20;;;-0.74;96.17
49779;BME280;36217;60.232;24.776;2022-12-04T05:48:18;103026.85;;;-0.80;96.19
49779;BME280;36217;60.232;24.776;2022-12-04T05:50:45;103026.27;;;-0.76;95.89
49779;BME280;36217;60.232;24.776;2022-12-04T05:53:12;103026.17;;;-0.77;96.03
49779;BME280;36217;60.232;24.776;2022-12-04T05:55:39;103024.57;;;-0.75;96.14
49779;BME280;36217;60.232;24.776;2022-12-04T05:58:06;103026.28;;;-0.77;96.20
49779;BME280;36217;60.232;24.776;2022-12-04T06:00:33;103027.91;;;-0.81;96.03
49779;BME280;36217;60.232;24.776;2022-12-04T06:02:59;103028.75;;;-1.07;96.45
49779;BME280;36217;60.232;24.776;2022-12-04T06:05:27;103024.75;;;-1.04;96.51
49779;BME280;36217;60.232;24.776;2022-12-04T06:07:54;103026.49;;;-0.87;96.86
49779;BME280;36217;60.232;24.776;2022-12-04T06:10:21;103029.21;;;-0.81;96.73
49779;BME280;36217;60.232;24.776;2022-12-04T06:12:47;103029.38;;;-0.96;96.57
49779;BME280;36217;60.232;24.776;2022-12-04T06:15:15;103028.25;;;-0.79;96.86
49779;BME280;36217;60.232;24.776;2022-12-04T06:17:42;103026.56;;;-0.82;96.55
49779;BME280;36217;60.232;24.776;2022-12-04T06:20:10;103028.80;;;-0.84;96.67
49779;BME280;36217;60.232;24.776;2022-12-04T06:22:37;103030.69;;;-0.60;96.99
49779;BME280;36217;60.232;24.776;2022-12-04T06:25:05;103033.02;;;-0.76;96.28
49779;BME280;36217;60.232;24.776;2022-12-04T06:27:32;103030.37;;;-0.80;96.18
49779;BME280;36217;60.232;24.776;2022-12-04T06:29:58;103029.90;;;-0.77;95.88
49779;BME280;36217;60.232;24.776;2022-12-04T06:32:26;103030.43;;;-0.76;95.97
49779;BME280;36217;60.232;24.776;2022-12-04T06:34:53;103029.25;;;-0.80;95.90
49779;BME280;36217;60.232;24.776;2022-12-04T06:37:23;103028.57;;;-0.78;95.69
49779;BME280;36217;60.232;24.776;2022-12-04T06:39:50;103030.98;;;-0.77;96.01
49779;BME280;36217;60.232;24.776;2022-12-04T06:42:17;103032.84;;;-0.99;95.70
49779;BME280;36217;60.232;24.776;2022-12-04T06:44:44;103036.74;;;-0.73;95.50
49779;BME280;36217;60.232;24.776;2022-12-04T06:47:11;103038.29;;;-0.74;95.75
49779;BME280;36217;60.232;24.776;2022-12-04T06:49:37;103039.70;;;-0.77;95.71
49779;BME280;36217;60.232;24.776;2022-12-04T06:52:04;103039.33;;;-0.73;95.67
49779;BME280;36217;60.232;24.776;2022-12-04T06:54:31;103041.79;;;-0.98;96.07
49779;BME280;36217;60.232;24.776;2022-12-04T06:56:58;103042.69;;;-0.75;95.57
49779;BME280;36217;60.232;24.776;2022-12-04T06:59:25;103039.89;;;-0.71;95.45
49779;BME280;36217;60.232;24.776;2022-12-04T07:01:52;103041.82;;;-0.76;95.74
49779;BME280;36217;60.232;24.776;2022-12-04T07:04:19;103042.35;;;-0.77;95.64
49779;BME280;36217;60.232;24.776;2022-12-04T07:06:46;103042.44;;;-0.69;95.55
49779;BME280;36217;60.232;24.776;2022-12-04T07:09:14;103043.96;;;-0.89;95.55
49779;BME280;36217;60.232;24.776;2022-12-04T07:11:43;103045.95;;;-0.86;95.47
49779;BME280;36217;60.232;24.776;2022-12-04T07:14:11;103047.39;;;-0.62;95.13
49779;BME280;36217;60.232;24.776;2022-12-04T07:16:40;103045.87;;;-0.64;95.27
49779;BME280;36217;60.232;24.776;2022-12-04T07:19:08;103047.84;;;-0.86;95.08
49779;BME280;36217;60.232;24.776;2022-12-04T07:21:36;103050.38;;;-0.64;95.32
49779;BME280;36217;60.232;24.776;2022-12-04T07:24:03;103050.41;;;-0.95;95.56
49779;BME280;36217;60.232;24.776;2022-12-04T07:26:31;103052.73;;;-0.96;95.64
49779;BME280;36217;60.232;24.776;2022-12-04T07:28:58;103053.19;;;-0.60;94.95
49779;BME280;36217;60.232;24.776;2022-12-04T07:31:27;103051.92;;;-0.62;94.74
49779;BME280;36217;60.232;24.776;2022-12-04T07:33:56;103053.03;;;-0.65;95.01
49779;BME280;36217;60.232;24.776;2022-12-04T07:36:24;103057.73;;;-0.64;94.97
49779;BME280;36217;60.232;24.776;2022-12-04T07:38:53;103056.12;;;-0.81;94.93
49779;BME280;36217;60.232;24.776;2022-12-04T07:41:20;103055.94;;;-0.71;94.21
49779;BME280;36217;60.232;24.776;2022-12-04T07:43:48;103054.21;;;-0.37;93.91
49779;BME280;36217;60.232;24.776;2022-12-04T07:46:16;103056.89;;;-0.30;94.23
49779;BME280;36217;60.232;24.776;2022-12-04T07:48:43;103062.28;;;-0.35;93.94
49779;BME280;36217;60.232;24.776;2022-12-04T07:51:12;103060.69;;;-0.11;93.54
49779;BME280;36217;60.232;24.776;2022-12-04T07:53:40;103060.63;;;-0.13;94.14
49779;BME280;36217;60.232;24.776;2022-12-04T07:56:09;103059.06;;;-0.28;93.66
49779;BME280;36217;60.232;24.776;2022-12-04T07:58:37;103060.82;;;-0.26;93.19
49779;BME280;36217;60.232;24.776;2022-12-04T08:01:07;103059.25;;;-0.27;93.48
49779;BME280;36217;60.232;24.776;2022-12-04T08:03:34;103058.64;;;-0.27;93.02
49779;BME280;36217;60.232;24.776;2022-12-04T08:06:02;103060.73;;;-0.23;92.67
49779;BME280;36217;60.232;24.776;2022-12-04T08:08:29;103062.86;;;0.00;92.45
49779;BME280;36217;60.232;24.776;2022-12-04T08:10:56;103064.87;;;-0.44;93.26
49779;BME280;36217;60.232;24.776;2022-12-04T08:13:23;103065.49;;;-0.09;92.52
49779;BME280;36217;60.232;24.776;2022-12-04T08:15:50;103062.07;;;-0.41;92.27
49779;BME280;36217;60.232;24.776;2022-12-04T08:18:17;103068.32;;;-0.14;92.20
49779;BME280;36217;60.232;24.776;2022-12-04T08:20:44;103067.38;;;-0.14;92.01
49779;BME280;36217;60.232;24.776;2022-12-04T08:23:11;103066.03;;;-0.05;92.06
49779;BME280;36217;60.232;24.776;2022-12-04T08:25:38;103063.76;;;-0.29;91.99
49779;BME280;36217;60.232;24.776;2022-12-04T08:28:05;103064.14;;;-0.30;91.87
49779;BME280;36217;60.232;24.776;2022-12-04T08:30:34;103061.37;;;0.20;92.17
49779;BME280;36217;60.232;24.776;2022-12-04T08:33:01;103063.16;;;0.21;92.24
49779;BME280;36217;60.232;24.776;2022-12-04T08:35:28;103066.37;;;0.22;91.75
49779;BME280;36217;60.232;24.776;2022-12-04T08:37:55;103065.93;;;-0.41;92.97
49779;BME280;36217;60.232;24.776;2022-12-04T08:40:22;103059.58;;;-0.24;93.37
49779;BME280;36217;60.232;24.776;2022-12-04T08:42:49;103056.78;;;-0.28;92.79
49779;BME280;36217;60.232;24.776;2022-12-04T08:45:16;103054.17;;;-0.59;93.37
49779;BME280;36217;60.232;24.776;2022-12-04T08:47:43;103055.18;;;-0.15;94.11
49779;BME280;36217;60.232;24.776;2022-12-04T08:50:11;103053.63;;;-0.11;93.76
49779;BME280;36217;60.232;24.776;2022-12-04T08:52:38;103051.34;;;-0.41;94.27
49779;BME280;36217;60.232;24.776;2022-12-04T08:55:06;103050.84;;;-0.44;94.68
49779;BME280;36217;60.232;24.776;2022-12-04T08:57:33;103053.74;;;-0.20;94.21
49779;BME280;36217;60.232;24.776;2022-12-04T09:00:00;103053.85;;;-0.23;94.71
49779;BME280;36217;60.232;24.776;2022-12-04T09:02:27;103054.14;;;-0.20;94.59
49779;BME280;36217;60.232;24.776;2022-12-04T09:04:54;103058.18;;;-0.71;94.93
49779;BME280;36217;60.232;24.776;2022-12-04T09:07:21;103056.02;;;-0.45;95.00
49779;BME280;36217;60.232;24.776;2022-12-04T09:09:48;103055.88;;;-0.28;95.38
49779;BME280;36217;60.232;24.776;2022-12-04T09:12:16;103054.80;;;-0.16;94.86
49779;BME280;36217;60.232;24.776;2022-12-04T09:14:43;103051.75;;;-0.44;94.87
49779;BME280;36217;60.232;24.776;2022-12-04T09:17:10;103052.32;;;-0.39;94.51
49779;BME280;36217;60.232;24.776;2022-12-04T09:19:36;103053.71;;;-0.45;94.87
49779;BME280;36217;60.232;24.776;2022-12-04T09:22:03;103053.76;;;-0.67;95.06
49779;BME280;36217;60.232;24.776;2022-12-04T09:24:30;103053.71;;;-0.65;95.36
49779;BME280;36217;60.232;24.776;2022-12-04T09:26:57;103053.22;;;-0.79;95.44
49779;BME280;36217;60.232;24.776;2022-12-04T09:29:23;103055.05;;;-0.48;95.74
49779;BME280;36217;60.232;24.776;2022-12-04T09:31:50;103056.83;;;-0.41;95.09
49779;BME280;36217;60.232;24.776;2022-12-04T09:34:17;103054.88;;;-0.42;95.37
49779;BME280;36217;60.232;24.776;2022-12-04T09:36:44;103056.13;;;-0.62;94.88
49779;BME280;36217;60.232;24.776;2022-12-04T09:39:11;103055.90;;;-0.41;94.91
49779;BME280;36217;60.232;24.776;2022-12-04T09:41:58;103053.13;;;-0.60;94.79
49779;BME280;36217;60.232;24.776;2022-12-04T09:44:32;103049.26;;;-0.53;94.50
49779;BME280;36217;60.232;24.776;2022-12-04T09:47:02;103046.91;;;-0.31;95.19
49779;BME280;36217;60.232;24.776;2022-12-04T09:49:35;103045.41;;;-0.33;95.19
49779;BME280;36217;60.232;24.776;2022-12-04T09:52:08;103044.67;;;-0.77;95.26
49779;BME280;36217;60.232;24.776;2022-12-04T09:54:41;103047.82;;;-0.27;95.12
49779;BME280;36217;60.232;24.776;2022-12-04T09:57:14;103046.66;;;-0.28;94.78
49779;BME280;36217;60.232;24.776;2022-12-04T09:59:42;103041.99;;;-0.31;94.54
49779;BME280;36217;60.232;24.776;2022-12-04T10:02:24;103037.99;;;-0.35;94.69
49779;BME280;36217;60.232;24.776;2022-12-04T10:04:52;103037.01;;;-0.34;94.39
49779;BME280;36217;60.232;24.776;2022-12-04T10:07:25;103034.13;;;-0.32;94.45
49779;BME280;36217;60.232;24.776;2022-12-04T10:10:01;103035.97;;;-0.58;94.55
49779;BME280;36217;60.232;24.776;2022-12-04T10:12:37;103036.64;;;-0.50;94.50
49779;BME280;36217;60.232;24.776;2022-12-04T10:15:19;103038.99;;;-0.28;94.82
49779;BME280;36217;60.232;24.776;2022-12-04T10:18:01;103037.34;;;-0.48;94.97
49779;BME280;36217;60.232;24.776;2022-12-04T10:20:45;103036.23;;;-0.46;94.84
49779;BME280;36217;60.232;24.776;2022-12-04T10:23:22;103034.23;;;-0.47;94.80
49779;BME280;36217;60.232;24.776;2022-12-04T10:25:54;103035.89;;;-0.23;95.20
49779;BME280;36217;60.232;24.776;2022-12-04T10:28:26;103034.64;;;-0.23;95.25
49779;BME280;36217;60.232;24.776;2022-12-04T10:30:59;103033.13;;;-0.46;95.43
49779;BME280;36217;60.232;24.776;2022-12-04T10:33:32;103029.49;;;-0.22;95.50
49779;BME280;36217;60.232;24.776;2022-12-04T10:36:01;103026.27;;;-0.31;95.33
49779;BME280;36217;60.232;24.776;2022-12-04T10:38:34;103028.35;;;-0.54;95.10
49779;BME280;36217;60.232;24.776;2022-12-04T10:41:09;103025.86;;;-0.51;95.13
49779;BME280;36217;60.232;24.776;2022-12-04T10:43:42;103026.18;;;-0.28;94.89
49779;BME280;36217;60.232;24.776;2022-12-04T10:46:13;103023.06;;;-0.25;94.91
49779;BME280;36217;60.232;24.776;2022-12-04T10:48:43;103020.90;;;-0.45;95.24
49779;BME280;36217;60.232;24.776;2022-12-04T10:51:14;103021.65;;;-0.41;95.26
49779;BME280;36217;60.232;24.776;2022-12-04T10:53:43;103020.77;;;-0.45;95.23
49779;BME280;36217;60.232;24.776;2022-12-04T10:56:13;103023.04;;;-0.42;95.11
49779;BME280;36217;60.232;24.776;2022-12-04T10:58:41;103026.36;;;-0.42;95.49
49779;BME280;36217;60.232;24.776;2022-12-04T11:01:11;103024.04;;;-0.47;95.71
49779;BME280;36217;60.232;24.776;2022-12-04T11:03:38;103020.95;;;-0.21;95.51
49779;BME280;36217;60.232;24.776;2022-12-04T11:06:08;103020.49;;;-0.74;95.69
49779;BME280;36217;60.232;24.776;2022-12-04T11:08:39;103018.33;;;-0.36;94.95
49779;BME280;36217;60.232;24.776;2022-12-04T11:11:08;103016.90;;;-0.59;94.80
49779;BME280;36217;60.232;24.776;2022-12-04T11:13:36;103015.27;;;-0.71;95.39
49779;BME280;36217;60.232;24.776;2022-12-04T11:16:04;103012.32;;;-0.70;96.01
49779;BME280;36217;60.232;24.776;2022-12-04T11:18:33;103014.37;;;-1.04;96.84
49779;BME280;36217;60.232;24.776;2022-12-04T11:21:02;103012.61;;;-1.33;98.28
49779;BME280;36217;60.232;24.776;2022-12-04T11:23:32;103009.98;;;-1.03;97.89
49779;BME280;36217;60.232;24.776;2022-12-04T11:26:01;103009.26;;;-1.20;99.21
49779;BME280;36217;60.232;24.776;2022-12-04T11:28:29;103007.62;;;-0.95;100.00
49779;BME280;36217;60.232;24.776;2022-12-04T11:31:00;103007.29;;;-1.11;100.00
49779;BME280;36217;60.232;24.776;2022-12-04T11:33:33;103003.97;;;-1.07;100.00
49779;BME280;36217;60.232;24.776;2022-12-04T11:36:06;103002.14;;;-1.17;100.00
49779;BME280;36217;60.232;24.776;2022-12-04T11:38:41;103001.36;;;-1.21;100.00
49779;BME280;36217;60.232;24.776;2022-12-04T11:41:22;103001.08;;;-1.24;100.00
49779;BME280;36217;60.232;24.776;2022-12-04T11:43:51;103002.37;;;-1.26;100.00
49779;BME280;36217;60.232;24.776;2022-12-04T11:46:21;103001.45;;;-1.30;100.00
49779;BME280;36217;60.232;24.776;2022-12-04T11:48:49;103002.34;;;-1.42;100.00
49779;BME280;36217;60.232;24.776;2022-12-04T11:51:22;103001.06;;;-1.47;100.00
49779;BME280;36217;60.232;24.776;2022-12-04T11:53:57;102999.86;;;-1.42;100.00
49779;BME280;36217;60.232;24.776;2022-12-04T11:56:28;102998.90;;;-1.51;100.00
49779;BME280;36217;60.232;24.776;2022-12-04T11:59:39;102997.82;;;-1.49;100.00
49779;BME280;36217;60.232;24.776;2022-12-04T12:02:26;103000.10;;;-1.47;100.00
49779;BME280;36217;60.232;24.776;2022-12-04T12:05:07;103003.37;;;-1.49;100.00
49779;BME280;36217;60.232;24.776;2022-12-04T12:07:49;103000.36;;;-1.52;100.00
49779;BME280;36217;60.232;24.776;2022-12-04T12:10:25;102999.14;;;-1.56;100.00
49779;BME280;36217;60.232;24.776;2022-12-04T12:13:02;102998.23;;;-1.73;100.00
49779;BME280;36217;60.232;24.776;2022-12-04T12:15:35;102998.51;;;-1.55;100.00
49779;BME280;36217;60.232;24.776;2022-12-04T12:18:20;102997.93;;;-1.58;100.00
49779;BME280;36217;60.232;24.776;2022-12-04T12:21:01;102995.71;;;-1.63;100.00
49779;BME280;36217;60.232;24.776;2022-12-04T12:23:46;102993.15;;;-1.72;100.00
49779;BME280;36217;60.232;24.776;2022-12-04T12:26:17;102991.47;;;-1.58;100.00
49779;BME280;36217;60.232;24.776;2022-12-04T12:29:01;102990.28;;;-1.77;100.00
49779;BME280;36217;60.232;24.776;2022-12-04T12:31:46;102994.12;;;-1.81;100.00
49779;BME280;36217;60.232;24.776;2022-12-04T12:34:24;102997.44;;;-1.85;100.00
49779;BME280;36217;60.232;24.776;2022-12-04T12:36:59;102996.49;;;-1.79;100.00
49779;BME280;36217;60.232;24.776;2022-12-04T12:39:34;102999.37;;;-1.84;100.00
49779;BME280;36217;60.232;24.776;2022-12-04T12:42:09;103001.04;;;-1.75;100.00
49779;BME280;36217;60.232;24.776;2022-12-04T12:44:47;102998.83;;;-1.65;100.00
49779;BME280;36217;60.232;24.776;2022-12-04T12:47:18;102998.38;;;-1.87;100.00
49779;BME280;36217;60.232;24.776;2022-12-04T12:49:49;102995.15;;;-2.01;100.00
49779;BME280;36217;60.232;24.776;2022-12-04T12:52:26;102995.85;;;-1.93;100.00